sensor_id;sensor_type;location;lat;lon;timestamp;pressure;altitude;pressure_sealevel;temperature;humidity
28267;BME280;15525;45.568;5.448;2023-02-13T00:01:28;99778.13;;;4.53;53.64
28267;BME280;15525;45.568;5.448;2023-02-13T00:03:53;99778.03;;;4.61;53.28
28267;BME280;15525;45.568;5.448;2023-02-13T00:06:19;99781.56;;;4.68;53.14
28267;BME280;15525;45.568;5.448;2023-02-13T00:08:44;99761.22;;;4.54;53.32
28267;BME280;15525;45.568;5.448;2023-02-13T00:11:09;99781.72;;;4.66;53.19
28267;BME280;15525;45.568;5.448;2023-02-13T00:13:35;99788.50;;;4.69;53.24
28267;BME280;15525;45.568;5.448;2023-02-13T00:16:02;99781.63;;;4.53;53.65
28267;BME280;15525;45.568;5.448;2023-02-13T00:18:29;99775.84;;;4.50;53.50
28267;BME280;15525;45.568;5.448;2023-02-13T00:23:23;99787.38;;;4.57;53.60
28267;BME280;15525;45.568;5.448;2023-02-13T00:25:48;99789.56;;;4.53;53.52
28267;BME280;15525;45.568;5.448;2023-02-13T00:28:14;99777.53;;;4.51;54.05
28267;BME280;15525;45.568;5.448;2023-02-13T00:30:39;99776.25;;;4.47;53.82
28267;BME280;15525;45.568;5.448;2023-02-13T00:33:05;99775.78;;;4.43;53.94
28267;BME280;15525;45.568;5.448;2023-02-13T00:35:30;99774.31;;;4.41;54.00
28267;BME280;15525;45.568;5.448;2023-02-13T00:37:56;99756.09;;;4.31;54.10
28267;BME280;15525;45.568;5.448;2023-02-13T00:40:21;99784.81;;;4.49;53.81
28267;BME280;15525;45.568;5.448;2023-02-13T00:42:47;99791.75;;;4.50;53.91
28267;BME280;15525;45.568;5.448;2023-02-13T00:45:12;99771.22;;;4.37;53.86
28267;BME280;15525;45.568;5.448;2023-02-13T00:47:37;99765.09;;;4.37;54.02
28267;BME280;15525;45.568;5.448;2023-02-13T00:50:03;99789.69;;;4.45;54.19
28267;BME280;15525;45.568;5.448;2023-02-13T00:52:29;99786.00;;;4.46;53.94
28267;BME280;15525;45.568;5.448;2023-02-13T00:54:54;99780.53;;;4.48;53.73
28267;BME280;15525;45.568;5.448;2023-02-13T00:57:19;99784.88;;;4.55;53.90
28267;BME280;15525;45.568;5.448;2023-02-13T00:59:45;99794.88;;;4.53;53.54
28267;BME280;15525;45.568;5.448;2023-02-13T01:02:10;99778.91;;;4.47;53.73
28267;BME280;15525;45.568;5.448;2023-02-13T01:04:36;99796.69;;;4.53;53.35
28267;BME280;15525;45.568;5.448;2023-02-13T01:07:01;99799.44;;;4.45;53.78
28267;BME280;15525;45.568;5.448;2023-02-13T01:09:26;99805.16;;;4.42;53.77
28267;BME280;15525;45.568;5.448;2023-02-13T01:11:52;99797.91;;;4.36;54.06
28267;BME280;15525;45.568;5.448;2023-02-13T01:14:17;99794.81;;;4.32;53.92
28267;BME280;15525;45.568;5.448;2023-02-13T01:16:43;99807.31;;;4.38;53.87
28267;BME280;15525;45.568;5.448;2023-02-13T01:19:08;99795.66;;;4.33;54.08
28267;BME280;15525;45.568;5.448;2023-02-13T01:21:34;99805.50;;;4.39;53.88
28267;BME280;15525;45.568;5.448;2023-02-13T01:24:02;99797.13;;;4.35;53.78
28267;BME280;15525;45.568;5.448;2023-02-13T01:26:28;99809.03;;;4.46;53.31
28267;BME280;15525;45.568;5.448;2023-02-13T01:28:54;99814.56;;;4.44;53.49
28267;BME280;15525;45.568;5.448;2023-02-13T01:31:20;99813.53;;;4.45;53.44
28267;BME280;15525;45.568;5.448;2023-02-13T01:33:45;99812.25;;;4.41;53.56
28267;BME280;15525;45.568;5.448;2023-02-13T01:36:12;99814.41;;;4.31;54.06
28267;BME280;15525;45.568;5.448;2023-02-13T01:38:39;99813.56;;;4.31;53.85
28267;BME280;15525;45.568;5.448;2023-02-13T01:41:04;99817.75;;;4.25;54.18
28267;BME280;15525;45.568;5.448;2023-02-13T01:44:03;99815.59;;;4.29;54.95
28267;BME280;15525;45.568;5.448;2023-02-13T01:46:33;99813.56;;;4.31;54.07
28267;BME280;15525;45.568;5.448;2023-02-13T01:49:09;99811.09;;;4.29;54.71
28267;BME280;15525;45.568;5.448;2023-02-13T01:51:37;99816.97;;;4.25;53.84
28267;BME280;15525;45.568;5.448;2023-02-13T01:54:08;99809.66;;;4.12;54.90
28267;BME280;15525;45.568;5.448;2023-02-13T01:56:49;99803.91;;;4.09;55.49
28267;BME280;15525;45.568;5.448;2023-02-13T02:02:00;99813.31;;;4.11;54.32
28267;BME280;15525;45.568;5.448;2023-02-13T02:04:29;99806.38;;;4.10;54.61
28267;BME280;15525;45.568;5.448;2023-02-13T02:07:08;99822.44;;;4.23;55.21
28267;BME280;15525;45.568;5.448;2023-02-13T02:09:38;99797.78;;;4.08;54.42
28267;BME280;15525;45.568;5.448;2023-02-13T02:12:51;99811.00;;;4.23;54.40
28267;BME280;15525;45.568;5.448;2023-02-13T02:15:08;99820.72;;;4.30;53.86
28267;BME280;15525;45.568;5.448;2023-02-13T02:17:33;99813.78;;;4.15;54.28
28267;BME280;15525;45.568;5.448;2023-02-13T02:20:17;99829.56;;;4.23;55.13
28267;BME280;15525;45.568;5.448;2023-02-13T02:25:54;99819.34;;;4.20;54.28
28267;BME280;15525;45.568;5.448;2023-02-13T02:33:53;99818.50;;;4.19;54.29
28267;BME280;15525;45.568;5.448;2023-02-13T02:39:17;99815.50;;;4.08;55.36
28267;BME280;15525;45.568;5.448;2023-02-13T02:42:17;99819.53;;;4.04;55.95
28267;BME280;15525;45.568;5.448;2023-02-13T02:47:43;99812.13;;;4.14;55.14
28267;BME280;15525;45.568;5.448;2023-02-13T02:56:11;99813.66;;;4.23;54.82
28267;BME280;15525;45.568;5.448;2023-02-13T02:59:00;99806.19;;;4.12;54.47
28267;BME280;15525;45.568;5.448;2023-02-13T03:01:47;99792.78;;;3.99;54.22
28267;BME280;15525;45.568;5.448;2023-02-13T03:04:39;99808.31;;;4.02;54.83
28267;BME280;15525;45.568;5.448;2023-02-13T03:07:24;99813.97;;;3.99;54.24
28267;BME280;15525;45.568;5.448;2023-02-13T03:09:54;99817.53;;;4.06;54.25
28267;BME280;15525;45.568;5.448;2023-02-13T03:15:34;99807.38;;;4.09;53.87
28267;BME280;15525;45.568;5.448;2023-02-13T03:18:00;99806.75;;;4.07;53.84
28267;BME280;15525;45.568;5.448;2023-02-13T03:20:45;99806.53;;;4.23;55.20
28267;BME280;15525;45.568;5.448;2023-02-13T03:35:20;99794.78;;;3.97;54.91
28267;BME280;15525;45.568;5.448;2023-02-13T03:41:17;99780.63;;;3.90;55.22
28267;BME280;15525;45.568;5.448;2023-02-13T03:44:17;99791.03;;;4.06;55.23
28267;BME280;15525;45.568;5.448;2023-02-13T03:46:47;99788.66;;;4.11;54.31
28267;BME280;15525;45.568;5.448;2023-02-13T03:50:02;99790.28;;;4.12;54.39
28267;BME280;15525;45.568;5.448;2023-02-13T03:54:59;99797.72;;;4.02;54.25
28267;BME280;15525;45.568;5.448;2023-02-13T03:57:44;99806.66;;;4.01;54.69
28267;BME280;15525;45.568;5.448;2023-02-13T04:00:36;99798.34;;;4.04;54.82
28267;BME280;15525;45.568;5.448;2023-02-13T04:06:01;99801.38;;;4.01;54.96
28267;BME280;15525;45.568;5.448;2023-02-13T04:08:28;99799.53;;;4.01;54.03
28267;BME280;15525;45.568;5.448;2023-02-13T04:13:32;99800.97;;;4.04;54.69
28267;BME280;15525;45.568;5.448;2023-02-13T04:16:15;99795.97;;;3.94;55.55
28267;BME280;15525;45.568;5.448;2023-02-13T04:18:42;99802.00;;;4.03;54.31
28267;BME280;15525;45.568;5.448;2023-02-13T04:21:09;99787.38;;;3.92;54.40
28267;BME280;15525;45.568;5.448;2023-02-13T04:23:35;99789.50;;;3.97;54.46
28267;BME280;15525;45.568;5.448;2023-02-13T04:26:15;99797.06;;;4.00;55.49
28267;BME280;15525;45.568;5.448;2023-02-13T04:28:41;99797.72;;;3.87;54.56
28267;BME280;15525;45.568;5.448;2023-02-13T04:31:06;99819.06;;;4.00;54.63
28267;BME280;15525;45.568;5.448;2023-02-13T04:33:32;99814.88;;;3.91;54.38
28267;BME280;15525;45.568;5.448;2023-02-13T04:35:57;99806.09;;;3.91;54.53
28267;BME280;15525;45.568;5.448;2023-02-13T04:38:23;99795.97;;;3.80;54.48
28267;BME280;15525;45.568;5.448;2023-02-13T04:40:48;99804.91;;;3.93;54.51
28267;BME280;15525;45.568;5.448;2023-02-13T04:43:13;99814.53;;;3.94;54.54
28267;BME280;15525;45.568;5.448;2023-02-13T04:45:39;99821.56;;;4.02;54.17
28267;BME280;15525;45.568;5.448;2023-02-13T04:48:04;99817.00;;;3.96;54.85
28267;BME280;15525;45.568;5.448;2023-02-13T04:50:30;99819.69;;;4.02;54.16
28267;BME280;15525;45.568;5.448;2023-02-13T04:52:56;99798.38;;;3.89;54.31
28267;BME280;15525;45.568;5.448;2023-02-13T04:55:26;99824.19;;;4.02;54.74
28267;BME280;15525;45.568;5.448;2023-02-13T04:57:53;99810.78;;;4.03;54.27
28267;BME280;15525;45.568;5.448;2023-02-13T05:00:23;99796.06;;;4.01;54.37
28267;BME280;15525;45.568;5.448;2023-02-13T05:02:49;99814.97;;;4.12;53.89
28267;BME280;15525;45.568;5.448;2023-02-13T05:05:14;99812.69;;;4.09;53.96
28267;BME280;15525;45.568;5.448;2023-02-13T05:07:41;99813.03;;;4.06;54.34
28267;BME280;15525;45.568;5.448;2023-02-13T05:10:08;99788.22;;;3.93;54.28
28267;BME280;15525;45.568;5.448;2023-02-13T05:12:33;99800.88;;;3.97;54.30
28267;BME280;15525;45.568;5.448;2023-02-13T05:14:59;99828.22;;;3.98;54.53
28267;BME280;15525;45.568;5.448;2023-02-13T05:17:24;99826.19;;;4.00;54.31
28267;BME280;15525;45.568;5.448;2023-02-13T05:19:50;99806.09;;;3.91;54.75
28267;BME280;15525;45.568;5.448;2023-02-13T05:22:15;99808.13;;;3.89;54.84
28267;BME280;15525;45.568;5.448;2023-02-13T05:24:59;99816.69;;;3.91;54.73
28267;BME280;15525;45.568;5.448;2023-02-13T05:27:25;99822.66;;;3.93;54.96
28267;BME280;15525;45.568;5.448;2023-02-13T05:29:50;99805.81;;;3.86;54.64
28267;BME280;15525;45.568;5.448;2023-02-13T05:32:15;99805.56;;;3.81;54.76
28267;BME280;15525;45.568;5.448;2023-02-13T05:34:41;99807.41;;;3.80;54.79
28267;BME280;15525;45.568;5.448;2023-02-13T05:37:06;99821.19;;;3.90;54.81
28267;BME280;15525;45.568;5.448;2023-02-13T05:39:31;99817.53;;;3.91;54.31
28267;BME280;15525;45.568;5.448;2023-02-13T05:41:57;99820.19;;;3.91;54.94
28267;BME280;15525;45.568;5.448;2023-02-13T05:44:23;99808.22;;;3.81;54.64
28267;BME280;15525;45.568;5.448;2023-02-13T05:46:48;99819.06;;;3.86;54.88
28267;BME280;15525;45.568;5.448;2023-02-13T05:49:14;99799.72;;;3.71;54.71
28267;BME280;15525;45.568;5.448;2023-02-13T05:51:40;99816.25;;;3.87;54.74
28267;BME280;15525;45.568;5.448;2023-02-13T05:54:06;99822.38;;;3.88;54.81
28267;BME280;15525;45.568;5.448;2023-02-13T05:56:32;99805.09;;;3.77;54.77
28267;BME280;15525;45.568;5.448;2023-02-13T05:58:57;99825.28;;;3.93;54.92
28267;BME280;15525;45.568;5.448;2023-02-13T06:01:23;99835.16;;;3.99;54.85
28267;BME280;15525;45.568;5.448;2023-02-13T06:03:49;99813.34;;;3.97;54.83
28267;BME280;15525;45.568;5.448;2023-02-13T06:06:15;99822.19;;;4.04;54.69
28267;BME280;15525;45.568;5.448;2023-02-13T06:08:41;99827.84;;;4.01;54.52
28267;BME280;15525;45.568;5.448;2023-02-13T06:11:08;99834.78;;;4.02;54.56
28267;BME280;15525;45.568;5.448;2023-02-13T06:13:33;99823.94;;;3.97;54.62
28267;BME280;15525;45.568;5.448;2023-02-13T06:15:59;99819.72;;;3.88;54.61
28267;BME280;15525;45.568;5.448;2023-02-13T06:18:24;99830.94;;;3.90;54.78
28267;BME280;15525;45.568;5.448;2023-02-13T06:20:50;99815.34;;;3.80;54.75
28267;BME280;15525;45.568;5.448;2023-02-13T06:23:15;99799.25;;;3.67;54.61
28267;BME280;15525;45.568;5.448;2023-02-13T06:25:41;99822.63;;;3.78;54.72
28267;BME280;15525;45.568;5.448;2023-02-13T06:28:06;99829.38;;;3.81;54.37
28267;BME280;15525;45.568;5.448;2023-02-13T06:30:32;99834.41;;;3.76;54.49
28267;BME280;15525;45.568;5.448;2023-02-13T06:32:57;99849.50;;;3.75;54.62
28267;BME280;15525;45.568;5.448;2023-02-13T06:35:23;99844.56;;;3.72;54.87
28267;BME280;15525;45.568;5.448;2023-02-13T06:37:49;99828.81;;;3.56;54.69
28267;BME280;15525;45.568;5.448;2023-02-13T06:40:15;99853.13;;;3.60;55.00
28267;BME280;15525;45.568;5.448;2023-02-13T06:42:41;99850.47;;;3.60;54.96
28267;BME280;15525;45.568;5.448;2023-02-13T06:45:07;99852.00;;;3.54;55.31
28267;BME280;15525;45.568;5.448;2023-02-13T06:47:33;99846.53;;;3.56;54.94
28267;BME280;15525;45.568;5.448;2023-02-13T06:49:58;99856.75;;;3.59;55.07
28267;BME280;15525;45.568;5.448;2023-02-13T06:52:23;99852.91;;;3.61;55.16
28267;BME280;15525;45.568;5.448;2023-02-13T06:54:49;99857.41;;;3.61;55.17
28267;BME280;15525;45.568;5.448;2023-02-13T06:57:15;99852.22;;;3.67;55.32
28267;BME280;15525;45.568;5.448;2023-02-13T06:59:41;99859.16;;;3.68;54.67
28267;BME280;15525;45.568;5.448;2023-02-13T07:02:09;99858.81;;;3.71;55.16
28267;BME280;15525;45.568;5.448;2023-02-13T07:04:34;99864.19;;;3.78;54.53
28267;BME280;15525;45.568;5.448;2023-02-13T07:07:00;99865.09;;;3.85;54.66
28267;BME280;15525;45.568;5.448;2023-02-13T07:09:25;99858.53;;;3.81;54.68
28267;BME280;15525;45.568;5.448;2023-02-13T07:11:51;99868.84;;;3.90;55.12
28267;BME280;15525;45.568;5.448;2023-02-13T07:14:16;99865.13;;;3.99;54.77
28267;BME280;15525;45.568;5.448;2023-02-13T07:16:42;99876.78;;;4.05;54.76
28267;BME280;15525;45.568;5.448;2023-02-13T07:19:07;99870.78;;;4.11;54.57
28267;BME280;15525;45.568;5.448;2023-02-13T07:21:33;99875.06;;;4.12;54.56
28267;BME280;15525;45.568;5.448;2023-02-13T07:23:58;99879.75;;;4.10;54.72
28267;BME280;15525;45.568;5.448;2023-02-13T07:26:24;99876.53;;;4.14;55.03
28267;BME280;15525;45.568;5.448;2023-02-13T07:28:51;99874.25;;;4.11;54.68
28267;BME280;15525;45.568;5.448;2023-02-13T07:31:16;99872.50;;;4.18;54.61
28267;BME280;15525;45.568;5.448;2023-02-13T07:33:42;99872.88;;;4.15;54.79
28267;BME280;15525;45.568;5.448;2023-02-13T07:36:07;99877.91;;;4.25;54.49
28267;BME280;15525;45.568;5.448;2023-02-13T07:38:33;99876.81;;;4.34;54.67
28267;BME280;15525;45.568;5.448;2023-02-13T07:41:02;99879.63;;;4.47;54.51
28267;BME280;15525;45.568;5.448;2023-02-13T07:43:29;99889.38;;;4.61;54.35
28267;BME280;15525;45.568;5.448;2023-02-13T07:45:59;99885.13;;;4.81;54.18
28267;BME280;15525;45.568;5.448;2023-02-13T07:48:25;99891.47;;;5.01;53.86
28267;BME280;15525;45.568;5.448;2023-02-13T07:50:58;99877.72;;;5.12;53.86
28267;BME280;15525;45.568;5.448;2023-02-13T07:53:23;99891.50;;;5.43;53.57
28267;BME280;15525;45.568;5.448;2023-02-13T07:55:49;99874.38;;;5.45;53.40
28267;BME280;15525;45.568;5.448;2023-02-13T07:58:14;99894.81;;;5.72;52.97
28267;BME280;15525;45.568;5.448;2023-02-13T08:00:39;99882.53;;;5.71;52.75
28267;BME280;15525;45.568;5.448;2023-02-13T08:03:05;99890.59;;;6.05;52.58
28267;BME280;15525;45.568;5.448;2023-02-13T08:05:31;99896.50;;;6.35;52.37
28267;BME280;15525;45.568;5.448;2023-02-13T08:07:57;99892.94;;;6.62;52.08
28267;BME280;15525;45.568;5.448;2023-02-13T08:10:22;99899.00;;;6.90;51.71
28267;BME280;15525;45.568;5.448;2023-02-13T08:13:07;99895.38;;;7.17;51.38
28267;BME280;15525;45.568;5.448;2023-02-13T08:15:33;99891.28;;;7.34;51.34
28267;BME280;15525;45.568;5.448;2023-02-13T08:17:59;99889.88;;;7.44;50.46
28267;BME280;15525;45.568;5.448;2023-02-13T08:20:24;99894.41;;;7.63;50.87
28267;BME280;15525;45.568;5.448;2023-02-13T08:22:50;99890.72;;;7.77;50.31
28267;BME280;15525;45.568;5.448;2023-02-13T08:25:15;99900.75;;;7.95;50.70
28267;BME280;15525;45.568;5.448;2023-02-13T08:27:41;99902.00;;;8.12;50.27
28267;BME280;15525;45.568;5.448;2023-02-13T08:30:08;99892.94;;;8.19;49.99
28267;BME280;15525;45.568;5.448;2023-02-13T08:32:33;99894.75;;;8.51;50.20
28267;BME280;15525;45.568;5.448;2023-02-13T08:34:59;99887.03;;;8.81;49.89
28267;BME280;15525;45.568;5.448;2023-02-13T08:37:24;99894.06;;;9.13;49.47
28267;BME280;15525;45.568;5.448;2023-02-13T08:39:50;99891.69;;;9.29;49.08
28267;BME280;15525;45.568;5.448;2023-02-13T08:42:15;99881.69;;;9.49;49.05
28267;BME280;15525;45.568;5.448;2023-02-13T08:44:41;99878.13;;;9.55;48.42
28267;BME280;15525;45.568;5.448;2023-02-13T08:47:07;99888.25;;;9.78;48.97
28267;BME280;15525;45.568;5.448;2023-02-13T08:49:33;99882.03;;;10.08;48.33
28267;BME280;15525;45.568;5.448;2023-02-13T08:51:59;99878.94;;;10.29;48.01
28267;BME280;15525;45.568;5.448;2023-02-13T08:54:25;99884.00;;;10.55;47.69
28267;BME280;15525;45.568;5.448;2023-02-13T08:56:52;99891.28;;;10.66;47.45
28267;BME280;15525;45.568;5.448;2023-02-13T08:59:18;99890.59;;;10.89;47.46
28267;BME280;15525;45.568;5.448;2023-02-13T09:01:43;99887.53;;;11.03;46.67
28267;BME280;15525;45.568;5.448;2023-02-13T09:04:09;99891.06;;;11.15;46.75
28267;BME280;15525;45.568;5.448;2023-02-13T09:06:34;99892.53;;;11.41;46.34
28267;BME280;15525;45.568;5.448;2023-02-13T09:09:00;99890.84;;;11.58;46.56
28267;BME280;15525;45.568;5.448;2023-02-13T09:11:25;99876.84;;;11.56;46.39
28267;BME280;15525;45.568;5.448;2023-02-13T09:13:54;99878.66;;;11.62;45.43
28267;BME280;15525;45.568;5.448;2023-02-13T09:16:20;99887.78;;;11.84;46.13
28267;BME280;15525;45.568;5.448;2023-02-13T09:18:46;99883.81;;;12.10;45.60
28267;BME280;15525;45.568;5.448;2023-02-13T09:21:12;99865.50;;;12.18;45.40
28267;BME280;15525;45.568;5.448;2023-02-13T09:23:39;99884.38;;;12.35;45.07
28267;BME280;15525;45.568;5.448;2023-02-13T09:26:08;99890.69;;;12.40;45.65
28267;BME280;15525;45.568;5.448;2023-02-13T09:28:34;99893.00;;;12.60;45.13
28267;BME280;15525;45.568;5.448;2023-02-13T09:31:11;99877.06;;;12.81;44.24
28267;BME280;15525;45.568;5.448;2023-02-13T09:33:39;99863.66;;;13.09;44.22
28267;BME280;15525;45.568;5.448;2023-02-13T09:36:13;99872.78;;;13.08;43.96
28267;BME280;15525;45.568;5.448;2023-02-13T09:38:40;99867.31;;;13.03;44.48
28267;BME280;15525;45.568;5.448;2023-02-13T09:41:15;99872.78;;;13.08;43.74
28267;BME280;15525;45.568;5.448;2023-02-13T09:43:49;99873.72;;;13.14;44.20
28267;BME280;15525;45.568;5.448;2023-02-13T09:46:24;99862.41;;;13.28;43.53
28267;BME280;15525;45.568;5.448;2023-02-13T09:48:56;99868.13;;;13.32;43.11
28267;BME280;15525;45.568;5.448;2023-02-13T09:51:24;99866.78;;;13.46;42.90
28267;BME280;15525;45.568;5.448;2023-02-13T09:54:02;99876.72;;;13.78;42.16
28267;BME280;15525;45.568;5.448;2023-02-13T09:59:38;99864.72;;;14.35;40.42
28267;BME280;15525;45.568;5.448;2023-02-13T10:02:41;99850.00;;;14.43;40.19
28267;BME280;15525;45.568;5.448;2023-02-13T10:05:43;99867.25;;;14.63;40.33
28267;BME280;15525;45.568;5.448;2023-02-13T10:16:15;99880.25;;;15.36;38.67
28267;BME280;15525;45.568;5.448;2023-02-13T10:18:48;99874.16;;;15.24;39.31
28267;BME280;15525;45.568;5.448;2023-02-13T10:21:19;99874.44;;;15.49;39.40
28267;BME280;15525;45.568;5.448;2023-02-13T10:24:09;99879.06;;;15.80;37.99
28267;BME280;15525;45.568;5.448;2023-02-13T10:26:38;99880.47;;;15.87;39.69
28267;BME280;15525;45.568;5.448;2023-02-13T10:30:13;99877.75;;;15.87;37.74
28267;BME280;15525;45.568;5.448;2023-02-13T10:35:36;99873.19;;;16.29;38.72
28267;BME280;15525;45.568;5.448;2023-02-13T10:38:13;99856.03;;;16.45;36.91
28267;BME280;15525;45.568;5.448;2023-02-13T10:41:29;99874.78;;;16.67;37.33
28267;BME280;15525;45.568;5.448;2023-02-13T11:00:57;99839.59;;;17.58;35.52
28267;BME280;15525;45.568;5.448;2023-02-13T11:03:26;99847.72;;;17.53;36.10
28267;BME280;15525;45.568;5.448;2023-02-13T11:05:53;99835.81;;;17.74;36.35
28267;BME280;15525;45.568;5.448;2023-02-13T11:08:31;99834.47;;;17.62;34.82
28267;BME280;15525;45.568;5.448;2023-02-13T11:10:57;99826.88;;;17.84;36.22
28267;BME280;15525;45.568;5.448;2023-02-13T11:13:24;99822.78;;;18.06;35.80
28267;BME280;15525;45.568;5.448;2023-02-13T11:18:32;99834.91;;;18.29;35.01
28267;BME280;15525;45.568;5.448;2023-02-13T11:21:08;99825.63;;;18.65;33.49
28267;BME280;15525;45.568;5.448;2023-02-13T11:23:42;99821.88;;;18.51;34.00
28267;BME280;15525;45.568;5.448;2023-02-13T11:28:44;99819.41;;;18.54;34.50
28267;BME280;15525;45.568;5.448;2023-02-13T11:31:32;99817.06;;;18.96;33.52
28267;BME280;15525;45.568;5.448;2023-02-13T11:34:16;99821.50;;;19.31;34.17
28267;BME280;15525;45.568;5.448;2023-02-13T11:36:42;99816.72;;;19.51;34.22
28267;BME280;15525;45.568;5.448;2023-02-13T11:39:18;99816.97;;;19.88;32.24
28267;BME280;15525;45.568;5.448;2023-02-13T11:41:45;99827.41;;;20.05;33.40
28267;BME280;15525;45.568;5.448;2023-02-13T11:44:24;99800.53;;;19.98;31.86
28267;BME280;15525;45.568;5.448;2023-02-13T11:46:52;99811.88;;;20.05;32.87
28267;BME280;15525;45.568;5.448;2023-02-13T11:49:19;99815.25;;;19.97;33.08
28267;BME280;15525;45.568;5.448;2023-02-13T11:51:51;99796.31;;;19.87;30.88
28267;BME280;15525;45.568;5.448;2023-02-13T11:54:44;99815.06;;;20.17;30.68
28267;BME280;15525;45.568;5.448;2023-02-13T11:59:43;99809.22;;;20.00;32.05
28267;BME280;15525;45.568;5.448;2023-02-13T12:02:13;99805.13;;;20.31;31.45
28267;BME280;15525;45.568;5.448;2023-02-13T12:04:39;99802.56;;;20.16;31.80
28267;BME280;15525;45.568;5.448;2023-02-13T12:07:29;99802.34;;;20.13;30.66
28267;BME280;15525;45.568;5.448;2023-02-13T12:10:00;99777.44;;;20.48;30.31
28267;BME280;15525;45.568;5.448;2023-02-13T12:12:43;99788.66;;;20.41;30.34
28267;BME280;15525;45.568;5.448;2023-02-13T12:15:22;99778.59;;;20.65;29.29
28267;BME280;15525;45.568;5.448;2023-02-13T12:23:52;99773.00;;;21.50;28.70
28267;BME280;15525;45.568;5.448;2023-02-13T12:26:22;99770.00;;;21.51;30.66
28267;BME280;15525;45.568;5.448;2023-02-13T12:29:03;99780.06;;;21.51;28.66
28267;BME280;15525;45.568;5.448;2023-02-13T12:34:26;99760.81;;;21.93;29.38
28267;BME280;15525;45.568;5.448;2023-02-13T12:39:34;99750.53;;;21.90;27.61
28267;BME280;15525;45.568;5.448;2023-02-13T12:57:05;99736.84;;;22.84;25.77
28267;BME280;15525;45.568;5.448;2023-02-13T13:10:41;99725.19;;;23.28;27.61
28267;BME280;15525;45.568;5.448;2023-02-13T13:13:51;99712.34;;;23.15;25.27
28267;BME280;15525;45.568;5.448;2023-02-13T13:16:28;99707.22;;;23.35;24.90
28267;BME280;15525;45.568;5.448;2023-02-13T13:21:45;99711.84;;;23.79;25.00
28267;BME280;15525;45.568;5.448;2023-02-13T13:26:47;99702.56;;;24.27;25.17
28267;BME280;15525;45.568;5.448;2023-02-13T13:29:22;99706.25;;;24.23;23.92
28267;BME280;15525;45.568;5.448;2023-02-13T13:31:53;99700.41;;;24.07;23.89
28267;BME280;15525;45.568;5.448;2023-02-13T13:34:23;99694.38;;;24.36;24.55
28267;BME280;15525;45.568;5.448;2023-02-13T13:36:59;99681.16;;;24.38;23.96
28267;BME280;15525;45.568;5.448;2023-02-13T13:44:53;99687.78;;;24.37;23.52
28267;BME280;15525;45.568;5.448;2023-02-13T13:47:47;99684.00;;;24.16;23.44
28267;BME280;15525;45.568;5.448;2023-02-13T13:50:29;99687.56;;;24.16;23.55
28267;BME280;15525;45.568;5.448;2023-02-13T13:53:10;99686.88;;;24.02;23.99
28267;BME280;15525;45.568;5.448;2023-02-13T14:01:19;99672.44;;;24.19;23.49
28267;BME280;15525;45.568;5.448;2023-02-13T14:07:13;99674.09;;;24.45;24.04
28267;BME280;15525;45.568;5.448;2023-02-13T14:11:51;99666.22;;;24.52;24.13
28267;BME280;15525;45.568;5.448;2023-02-13T14:16:51;99676.97;;;24.32;23.43
28267;BME280;15525;45.568;5.448;2023-02-13T14:19:38;99677.25;;;24.22;22.20
28267;BME280;15525;45.568;5.448;2023-02-13T14:24:56;99664.66;;;24.60;21.28
28267;BME280;15525;45.568;5.448;2023-02-13T14:27:29;99664.44;;;24.48;21.54
28267;BME280;15525;45.568;5.448;2023-02-13T14:29:56;99663.91;;;24.20;22.54
28267;BME280;15525;45.568;5.448;2023-02-13T14:32:36;99666.44;;;23.69;21.57
28267;BME280;15525;45.568;5.448;2023-02-13T14:35:24;99664.44;;;23.92;21.79
28267;BME280;15525;45.568;5.448;2023-02-13T14:37:53;99660.16;;;23.38;21.86
28267;BME280;15525;45.568;5.448;2023-02-13T14:42:50;99662.53;;;23.92;21.94
28267;BME280;15525;45.568;5.448;2023-02-13T14:45:31;99661.28;;;23.76;21.56
28267;BME280;15525;45.568;5.448;2023-02-13T14:48:03;99651.47;;;23.75;21.36
28267;BME280;15525;45.568;5.448;2023-02-13T14:50:44;99663.69;;;24.00;21.98
28267;BME280;15525;45.568;5.448;2023-02-13T14:53:45;99657.94;;;24.18;21.39
28267;BME280;15525;45.568;5.448;2023-02-13T14:56:14;99663.72;;;24.17;22.13
28267;BME280;15525;45.568;5.448;2023-02-13T14:58:52;99656.00;;;23.49;21.36
28267;BME280;15525;45.568;5.448;2023-02-13T15:01:31;99654.53;;;23.43;22.01
28267;BME280;15525;45.568;5.448;2023-02-13T15:06:49;99645.66;;;24.07;21.77
28267;BME280;15525;45.568;5.448;2023-02-13T15:09:38;99640.91;;;24.47;20.93
28267;BME280;15525;45.568;5.448;2023-02-13T15:14:57;99631.56;;;24.48;21.60
28267;BME280;15525;45.568;5.448;2023-02-13T15:17:34;99640.56;;;24.40;20.33
28267;BME280;15525;45.568;5.448;2023-02-13T15:20:08;99640.06;;;24.21;20.91
28267;BME280;15525;45.568;5.448;2023-02-13T15:22:45;99647.31;;;24.25;21.40
28267;BME280;15525;45.568;5.448;2023-02-13T15:25:34;99637.69;;;24.45;20.14
28267;BME280;15525;45.568;5.448;2023-02-13T15:28:02;99625.16;;;24.86;20.78
28267;BME280;15525;45.568;5.448;2023-02-13T15:30:36;99638.19;;;24.47;20.96
28267;BME280;15525;45.568;5.448;2023-02-13T15:35:33;99645.22;;;24.22;21.00
28267;BME280;15525;45.568;5.448;2023-02-13T15:37:59;99638.66;;;24.49;21.61
28267;BME280;15525;45.568;5.448;2023-02-13T15:40:42;99632.84;;;24.42;21.62
28267;BME280;15525;45.568;5.448;2023-02-13T15:43:39;99624.47;;;24.38;20.76
28267;BME280;15525;45.568;5.448;2023-02-13T15:46:27;99628.19;;;25.10;20.34
28267;BME280;15525;45.568;5.448;2023-02-13T15:48:54;99635.28;;;25.20;21.19
28267;BME280;15525;45.568;5.448;2023-02-13T15:51:24;99629.81;;;24.94;21.01
28267;BME280;15525;45.568;5.448;2023-02-13T15:53:58;99637.94;;;24.01;21.39
28267;BME280;15525;45.568;5.448;2023-02-13T15:56:24;99636.78;;;23.63;22.73
28267;BME280;15525;45.568;5.448;2023-02-13T15:58:52;99631.69;;;24.26;22.04
28267;BME280;15525;45.568;5.448;2023-02-13T16:01:19;99632.25;;;24.96;21.53
28267;BME280;15525;45.568;5.448;2023-02-13T16:03:46;99620.50;;;24.87;21.05
28267;BME280;15525;45.568;5.448;2023-02-13T16:06:18;99633.84;;;24.80;20.72
28267;BME280;15525;45.568;5.448;2023-02-13T16:08:54;99639.50;;;24.75;21.53
28267;BME280;15525;45.568;5.448;2023-02-13T16:14:19;99642.56;;;24.73;20.54
28267;BME280;15525;45.568;5.448;2023-02-13T16:17:04;99634.94;;;24.36;21.83